sensor_id;sensor_type;location;lat;lon;timestamp;pressure;altitude;pressure_sealevel;temperature
29423;BMP180;16399;51.686;8.684;2023-06-14T00:00:44;99829.00;;;17.80
29423;BMP180;16399;51.686;8.684;2023-06-14T00:03:48;99830.00;;;17.70
29423;BMP180;16399;51.686;8.684;2023-06-14T00:06:51;99831.00;;;17.70
29423;BMP180;16399;51.686;8.684;2023-06-14T00:09:53;99833.00;;;17.60
29423;BMP180;16399;51.686;8.684;2023-06-14T00:12:56;99833.00;;;17.60
29423;BMP180;16399;51.686;8.684;2023-06-14T00:15:58;99824.00;;;17.60
29423;BMP180;16399;51.686;8.684;2023-06-14T00:19:01;99837.00;;;17.60
29423;BMP180;16399;51.686;8.684;2023-06-14T00:22:06;99838.00;;;17.60
29423;BMP180;16399;51.686;8.684;2023-06-14T00:25:09;99837.00;;;17.60
29423;BMP180;16399;51.686;8.684;2023-06-14T00:28:11;99832.00;;;17.60
29423;BMP180;16399;51.686;8.684;2023-06-14T00:31:13;99835.00;;;17.60
29423;BMP180;16399;51.686;8.684;2023-06-14T00:34:16;99841.00;;;17.60
29423;BMP180;16399;51.686;8.684;2023-06-14T00:37:18;99845.00;;;17.60
29423;BMP180;16399;51.686;8.684;2023-06-14T00:40:20;99839.00;;;17.60
29423;BMP180;16399;51.686;8.684;2023-06-14T00:43:23;99846.00;;;17.60
29423;BMP180;16399;51.686;8.684;2023-06-14T00:46:27;99845.00;;;17.50
29423;BMP180;16399;51.686;8.684;2023-06-14T00:49:29;99850.00;;;17.50
29423;BMP180;16399;51.686;8.684;2023-06-14T00:52:32;99848.00;;;17.40
29423;BMP180;16399;51.686;8.684;2023-06-14T00:55:34;99851.00;;;17.40
29423;BMP180;16399;51.686;8.684;2023-06-14T00:58:36;99855.00;;;17.30
29423;BMP180;16399;51.686;8.684;2023-06-14T01:01:39;99863.00;;;17.20
29423;BMP180;16399;51.686;8.684;2023-06-14T01:04:43;99852.00;;;17.20
29423;BMP180;16399;51.686;8.684;2023-06-14T01:08:05;99857.00;;;17.20
29423;BMP180;16399;51.686;8.684;2023-06-14T01:11:16;99864.00;;;17.30
29423;BMP180;16399;51.686;8.684;2023-06-14T01:14:19;99866.00;;;17.30
29423;BMP180;16399;51.686;8.684;2023-06-14T01:17:23;99857.00;;;17.30
29423;BMP180;16399;51.686;8.684;2023-06-14T01:20:29;99855.00;;;17.20
29423;BMP180;16399;51.686;8.684;2023-06-14T01:23:32;99852.00;;;17.20
29423;BMP180;16399;51.686;8.684;2023-06-14T01:26:35;99857.00;;;17.10
29423;BMP180;16399;51.686;8.684;2023-06-14T01:29:39;99860.00;;;17.10
29423;BMP180;16399;51.686;8.684;2023-06-14T01:32:45;99863.00;;;17.00
29423;BMP180;16399;51.686;8.684;2023-06-14T01:35:53;99868.00;;;16.90
29423;BMP180;16399;51.686;8.684;2023-06-14T01:38:53;99862.00;;;16.90
29423;BMP180;16399;51.686;8.684;2023-06-14T01:45:36;99878.00;;;16.70
29423;BMP180;16399;51.686;8.684;2023-06-14T01:48:40;99880.00;;;16.60
29423;BMP180;16399;51.686;8.684;2023-06-14T01:51:42;99878.00;;;16.50
29423;BMP180;16399;51.686;8.684;2023-06-14T01:54:44;99888.00;;;16.30
29423;BMP180;16399;51.686;8.684;2023-06-14T01:57:48;99880.00;;;16.20
29423;BMP180;16399;51.686;8.684;2023-06-14T02:00:51;99883.00;;;16.10
29423;BMP180;16399;51.686;8.684;2023-06-14T02:03:55;99886.00;;;16.00
29423;BMP180;16399;51.686;8.684;2023-06-14T02:06:57;99885.00;;;15.90
29423;BMP180;16399;51.686;8.684;2023-06-14T02:09:59;99887.00;;;15.80
29423;BMP180;16399;51.686;8.684;2023-06-14T02:13:02;99889.00;;;15.70
29423;BMP180;16399;51.686;8.684;2023-06-14T02:16:04;99881.00;;;15.60
29423;BMP180;16399;51.686;8.684;2023-06-14T02:19:06;99887.00;;;15.60
29423;BMP180;16399;51.686;8.684;2023-06-14T02:22:09;99886.00;;;15.50
29423;BMP180;16399;51.686;8.684;2023-06-14T02:25:11;99884.00;;;15.40
29423;BMP180;16399;51.686;8.684;2023-06-14T02:28:13;99884.00;;;15.40
29423;BMP180;16399;51.686;8.684;2023-06-14T02:31:16;99884.00;;;15.40
29423;BMP180;16399;51.686;8.684;2023-06-14T02:34:18;99885.00;;;15.40
29423;BMP180;16399;51.686;8.684;2023-06-14T02:37:21;99892.00;;;15.30
29423;BMP180;16399;51.686;8.684;2023-06-14T02:40:24;99883.00;;;15.20
29423;BMP180;16399;51.686;8.684;2023-06-14T02:43:26;99886.00;;;15.30
29423;BMP180;16399;51.686;8.684;2023-06-14T02:46:28;99887.00;;;15.30
29423;BMP180;16399;51.686;8.684;2023-06-14T02:49:31;99876.00;;;15.30
29423;BMP180;16399;51.686;8.684;2023-06-14T02:52:34;99883.00;;;15.20
29423;BMP180;16399;51.686;8.684;2023-06-14T02:55:36;99882.00;;;15.20
29423;BMP180;16399;51.686;8.684;2023-06-14T02:58:40;99879.00;;;15.10
29423;BMP180;16399;51.686;8.684;2023-06-14T03:01:42;99885.00;;;15.10
29423;BMP180;16399;51.686;8.684;2023-06-14T03:04:44;99876.00;;;15.00
29423;BMP180;16399;51.686;8.684;2023-06-14T03:07:48;99879.00;;;15.00
29423;BMP180;16399;51.686;8.684;2023-06-14T03:10:51;99888.00;;;14.90
29423;BMP180;16399;51.686;8.684;2023-06-14T03:13:54;99892.00;;;14.90
29423;BMP180;16399;51.686;8.684;2023-06-14T03:16:57;99893.00;;;14.80
29423;BMP180;16399;51.686;8.684;2023-06-14T03:20:00;99892.00;;;14.80
29423;BMP180;16399;51.686;8.684;2023-06-14T03:23:03;99899.00;;;14.80
29423;BMP180;16399;51.686;8.684;2023-06-14T03:26:06;99910.00;;;14.80
29423;BMP180;16399;51.686;8.684;2023-06-14T03:29:09;99910.00;;;14.70
29423;BMP180;16399;51.686;8.684;2023-06-14T03:32:11;99908.00;;;14.70
29423;BMP180;16399;51.686;8.684;2023-06-14T03:35:13;99910.00;;;14.70
29423;BMP180;16399;51.686;8.684;2023-06-14T03:38:19;99905.00;;;14.80
29423;BMP180;16399;51.686;8.684;2023-06-14T03:41:21;99908.00;;;15.00
29423;BMP180;16399;51.686;8.684;2023-06-14T03:44:24;99905.00;;;15.60
29423;BMP180;16399;51.686;8.684;2023-06-14T03:47:27;99904.00;;;16.20
29423;BMP180;16399;51.686;8.684;2023-06-14T03:50:29;99912.00;;;16.80
29423;BMP180;16399;51.686;8.684;2023-06-14T03:53:33;99903.00;;;17.30
29423;BMP180;16399;51.686;8.684;2023-06-14T03:56:37;99920.00;;;17.80
29423;BMP180;16399;51.686;8.684;2023-06-14T03:59:39;99905.00;;;18.20
29423;BMP180;16399;51.686;8.684;2023-06-14T04:02:42;99914.00;;;18.60
29423;BMP180;16399;51.686;8.684;2023-06-14T04:05:45;99924.00;;;18.90
29423;BMP180;16399;51.686;8.684;2023-06-14T04:08:49;99922.00;;;19.10
29423;BMP180;16399;51.686;8.684;2023-06-14T04:11:52;99938.00;;;19.30
29423;BMP180;16399;51.686;8.684;2023-06-14T04:14:55;99926.00;;;19.50
29423;BMP180;16399;51.686;8.684;2023-06-14T04:17:57;99935.00;;;19.60
29423;BMP180;16399;51.686;8.684;2023-06-14T04:20:59;99940.00;;;19.70
29423;BMP180;16399;51.686;8.684;2023-06-14T04:24:02;99948.00;;;19.70
29423;BMP180;16399;51.686;8.684;2023-06-14T04:27:05;99957.00;;;19.50
29423;BMP180;16399;51.686;8.684;2023-06-14T04:30:08;99949.00;;;19.40
29423;BMP180;16399;51.686;8.684;2023-06-14T04:33:10;99959.00;;;19.30
29423;BMP180;16399;51.686;8.684;2023-06-14T04:36:13;99955.00;;;19.30
29423;BMP180;16399;51.686;8.684;2023-06-14T04:39:17;99967.00;;;19.50
29423;BMP180;16399;51.686;8.684;2023-06-14T04:42:20;99965.00;;;19.80
29423;BMP180;16399;51.686;8.684;2023-06-14T04:45:22;99963.00;;;20.10
29423;BMP180;16399;51.686;8.684;2023-06-14T04:48:25;99959.00;;;20.30
29423;BMP180;16399;51.686;8.684;2023-06-14T04:51:27;99959.00;;;20.60
29423;BMP180;16399;51.686;8.684;2023-06-14T04:54:31;99959.00;;;20.90
29423;BMP180;16399;51.686;8.684;2023-06-14T04:57:34;99961.00;;;21.30
29423;BMP180;16399;51.686;8.684;2023-06-14T05:00:38;99960.00;;;21.70
29423;BMP180;16399;51.686;8.684;2023-06-14T05:03:42;99959.00;;;22.00
29423;BMP180;16399;51.686;8.684;2023-06-14T05:06:46;99959.00;;;22.20
29423;BMP180;16399;51.686;8.684;2023-06-14T05:09:51;99958.00;;;22.10
29423;BMP180;16399;51.686;8.684;2023-06-14T05:12:53;99962.00;;;21.90
29423;BMP180;16399;51.686;8.684;2023-06-14T05:15:55;99957.00;;;22.10
29423;BMP180;16399;51.686;8.684;2023-06-14T05:18:58;99959.00;;;21.70
29423;BMP180;16399;51.686;8.684;2023-06-14T05:22:00;99957.00;;;21.70
29423;BMP180;16399;51.686;8.684;2023-06-14T05:25:04;99962.00;;;21.10
29423;BMP180;16399;51.686;8.684;2023-06-14T05:28:06;99965.00;;;20.50
29423;BMP180;16399;51.686;8.684;2023-06-14T05:31:08;99967.00;;;20.10
29423;BMP180;16399;51.686;8.684;2023-06-14T05:34:11;99976.00;;;19.70
29423;BMP180;16399;51.686;8.684;2023-06-14T05:37:13;99978.00;;;19.30
29423;BMP180;16399;51.686;8.684;2023-06-14T05:40:16;99969.00;;;18.90
29423;BMP180;16399;51.686;8.684;2023-06-14T05:43:18;99977.00;;;18.60
29423;BMP180;16399;51.686;8.684;2023-06-14T05:46:21;99982.00;;;18.60
29423;BMP180;16399;51.686;8.684;2023-06-14T05:49:26;99980.00;;;18.70
29423;BMP180;16399;51.686;8.684;2023-06-14T05:52:29;99985.00;;;19.10
29423;BMP180;16399;51.686;8.684;2023-06-14T05:55:32;99987.00;;;19.60
29423;BMP180;16399;51.686;8.684;2023-06-14T05:58:34;99993.00;;;19.70
29423;BMP180;16399;51.686;8.684;2023-06-14T06:01:37;99994.00;;;19.20
29423;BMP180;16399;51.686;8.684;2023-06-14T06:04:41;99996.00;;;19.00
29423;BMP180;16399;51.686;8.684;2023-06-14T06:07:43;99998.00;;;18.70
29423;BMP180;16399;51.686;8.684;2023-06-14T06:10:46;100002.00;;;18.70
29423;BMP180;16399;51.686;8.684;2023-06-14T06:13:49;100005.00;;;18.40
29423;BMP180;16399;51.686;8.684;2023-06-14T06:16:51;100005.00;;;18.20
29423;BMP180;16399;51.686;8.684;2023-06-14T06:19:54;100018.00;;;18.20
29423;BMP180;16399;51.686;8.684;2023-06-14T06:22:57;100008.00;;;18.30
29423;BMP180;16399;51.686;8.684;2023-06-14T06:25:59;100027.00;;;18.20
29423;BMP180;16399;51.686;8.684;2023-06-14T06:29:02;100011.00;;;18.30
29423;BMP180;16399;51.686;8.684;2023-06-14T06:32:05;100027.00;;;18.20
29423;BMP180;16399;51.686;8.684;2023-06-14T06:35:07;100025.00;;;18.30
29423;BMP180;16399;51.686;8.684;2023-06-14T06:38:11;100025.00;;;18.70
29423;BMP180;16399;51.686;8.684;2023-06-14T06:41:13;100034.00;;;19.30
29423;BMP180;16399;51.686;8.684;2023-06-14T06:44:16;100036.00;;;19.40
29423;BMP180;16399;51.686;8.684;2023-06-14T06:47:18;100035.00;;;19.50
29423;BMP180;16399;51.686;8.684;2023-06-14T06:50:20;100039.00;;;19.40
29423;BMP180;16399;51.686;8.684;2023-06-14T06:53:24;100025.00;;;19.30
29423;BMP180;16399;51.686;8.684;2023-06-14T06:56:27;100027.00;;;19.50
29423;BMP180;16399;51.686;8.684;2023-06-14T06:59:29;100025.00;;;19.40
29423;BMP180;16399;51.686;8.684;2023-06-14T07:02:31;100023.00;;;19.50
29423;BMP180;16399;51.686;8.684;2023-06-14T07:05:34;100043.00;;;19.30
29423;BMP180;16399;51.686;8.684;2023-06-14T07:08:36;100033.00;;;19.30
29423;BMP180;16399;51.686;8.684;2023-06-14T07:11:40;100027.00;;;19.30
29423;BMP180;16399;51.686;8.684;2023-06-14T07:14:43;100033.00;;;19.30
29423;BMP180;16399;51.686;8.684;2023-06-14T07:17:45;100036.00;;;19.30
29423;BMP180;16399;51.686;8.684;2023-06-14T07:20:47;100042.00;;;19.30
29423;BMP180;16399;51.686;8.684;2023-06-14T07:23:50;100044.00;;;19.30
29423;BMP180;16399;51.686;8.684;2023-06-14T07:26:52;100051.00;;;19.20
29423;BMP180;16399;51.686;8.684;2023-06-14T07:29:54;100050.00;;;19.30
29423;BMP180;16399;51.686;8.684;2023-06-14T07:32:57;100051.00;;;19.20
29423;BMP180;16399;51.686;8.684;2023-06-14T07:35:59;100045.00;;;19.20
29423;BMP180;16399;51.686;8.684;2023-06-14T07:39:01;100040.00;;;19.40
29423;BMP180;16399;51.686;8.684;2023-06-14T07:42:04;100050.00;;;19.60
29423;BMP180;16399;51.686;8.684;2023-06-14T07:45:07;100039.00;;;19.90
29423;BMP180;16399;51.686;8.684;2023-06-14T07:48:10;100046.00;;;20.20
29423;BMP180;16399;51.686;8.684;2023-06-14T07:51:12;100042.00;;;20.30
29423;BMP180;16399;51.686;8.684;2023-06-14T07:54:14;100046.00;;;20.40
29423;BMP180;16399;51.686;8.684;2023-06-14T07:57:17;100052.00;;;20.60
29423;BMP180;16399;51.686;8.684;2023-06-14T08:00:21;100048.00;;;20.60
29423;BMP180;16399;51.686;8.684;2023-06-14T08:03:23;100048.00;;;21.00
29423;BMP180;16399;51.686;8.684;2023-06-14T08:06:26;100047.00;;;21.50
29423;BMP180;16399;51.686;8.684;2023-06-14T08:09:28;100052.00;;;21.70
29423;BMP180;16399;51.686;8.684;2023-06-14T08:12:31;100051.00;;;22.10
29423;BMP180;16399;51.686;8.684;2023-06-14T08:15:33;100057.00;;;22.20
29423;BMP180;16399;51.686;8.684;2023-06-14T08:18:35;100057.00;;;22.20
29423;BMP180;16399;51.686;8.684;2023-06-14T08:21:38;100059.00;;;22.50
29423;BMP180;16399;51.686;8.684;2023-06-14T08:24:41;100052.00;;;23.00
29423;BMP180;16399;51.686;8.684;2023-06-14T08:27:43;100057.00;;;23.50
29423;BMP180;16399;51.686;8.684;2023-06-14T08:30:45;100058.00;;;23.80
29423;BMP180;16399;51.686;8.684;2023-06-14T08:33:48;100047.00;;;24.00
29423;BMP180;16399;51.686;8.684;2023-06-14T08:36:50;100058.00;;;24.10
29423;BMP180;16399;51.686;8.684;2023-06-14T08:39:53;100063.00;;;24.00
29423;BMP180;16399;51.686;8.684;2023-06-14T08:42:55;100078.00;;;23.60
29423;BMP180;16399;51.686;8.684;2023-06-14T08:46:04;100070.00;;;23.40
29423;BMP180;16399;51.686;8.684;2023-06-14T08:49:13;100051.00;;;23.10
29423;BMP180;16399;51.686;8.684;2023-06-14T08:52:19;100042.00;;;23.10
29423;BMP180;16399;51.686;8.684;2023-06-14T08:55:23;100046.00;;;23.50
29423;BMP180;16399;51.686;8.684;2023-06-14T08:58:30;100043.00;;;23.30
29423;BMP180;16399;51.686;8.684;2023-06-14T09:01:36;100070.00;;;23.90
29423;BMP180;16399;51.686;8.684;2023-06-14T09:04:38;100081.00;;;23.80
29423;BMP180;16399;51.686;8.684;2023-06-14T09:07:40;100057.00;;;23.20
29423;BMP180;16399;51.686;8.684;2023-06-14T09:10:45;100061.00;;;23.20
29423;BMP180;16399;51.686;8.684;2023-06-14T09:13:48;100077.00;;;23.40
29423;BMP180;16399;51.686;8.684;2023-06-14T09:16:54;100068.00;;;23.20
29423;BMP180;16399;51.686;8.684;2023-06-14T09:19:56;100056.00;;;23.00
29423;BMP180;16399;51.686;8.684;2023-06-14T09:23:03;100064.00;;;23.30
29423;BMP180;16399;51.686;8.684;2023-06-14T09:26:14;100068.00;;;23.90
29423;BMP180;16399;51.686;8.684;2023-06-14T09:29:18;100061.00;;;24.60
29423;BMP180;16399;51.686;8.684;2023-06-14T09:32:24;100079.00;;;24.90
29423;BMP180;16399;51.686;8.684;2023-06-14T09:35:26;100080.00;;;24.30
29423;BMP180;16399;51.686;8.684;2023-06-14T09:38:30;100088.00;;;24.30
29423;BMP180;16399;51.686;8.684;2023-06-14T09:41:34;100078.00;;;23.80
29423;BMP180;16399;51.686;8.684;2023-06-14T09:44:37;100074.00;;;24.10
29423;BMP180;16399;51.686;8.684;2023-06-14T09:47:39;100084.00;;;24.30
29423;BMP180;16399;51.686;8.684;2023-06-14T09:50:42;100073.00;;;24.70
29423;BMP180;16399;51.686;8.684;2023-06-14T09:53:46;100073.00;;;24.40
29423;BMP180;16399;51.686;8.684;2023-06-14T09:56:48;100065.00;;;24.60
29423;BMP180;16399;51.686;8.684;2023-06-14T10:00:00;100058.00;;;24.30
29423;BMP180;16399;51.686;8.684;2023-06-14T10:03:17;100062.00;;;24.40
29423;BMP180;16399;51.686;8.684;2023-06-14T10:06:19;100063.00;;;24.60
29423;BMP180;16399;51.686;8.684;2023-06-14T10:09:25;100067.00;;;24.80
29423;BMP180;16399;51.686;8.684;2023-06-14T10:12:27;100063.00;;;24.80
29423;BMP180;16399;51.686;8.684;2023-06-14T10:15:47;100067.00;;;24.90
29423;BMP180;16399;51.686;8.684;2023-06-14T10:22:14;100082.00;;;24.70
29423;BMP180;16399;51.686;8.684;2023-06-14T10:25:33;100075.00;;;24.20
29423;BMP180;16399;51.686;8.684;2023-06-14T10:32:32;100066.00;;;23.10
29423;BMP180;16399;51.686;8.684;2023-06-14T10:35:35;100081.00;;;22.90
29423;BMP180;16399;51.686;8.684;2023-06-14T10:38:37;100075.00;;;23.10
29423;BMP180;16399;51.686;8.684;2023-06-14T10:41:40;100073.00;;;23.60
29423;BMP180;16399;51.686;8.684;2023-06-14T10:44:56;100061.00;;;23.80
29423;BMP180;16399;51.686;8.684;2023-06-14T10:48:01;100070.00;;;24.10
29423;BMP180;16399;51.686;8.684;2023-06-14T10:51:03;100070.00;;;24.40
29423;BMP180;16399;51.686;8.684;2023-06-14T10:54:07;100061.00;;;24.00
29423;BMP180;16399;51.686;8.684;2023-06-14T10:57:12;100064.00;;;23.90
29423;BMP180;16399;51.686;8.684;2023-06-14T11:00:14;100074.00;;;23.60
29423;BMP180;16399;51.686;8.684;2023-06-14T11:03:31;100069.00;;;23.30
29423;BMP180;16399;51.686;8.684;2023-06-14T11:06:30;100077.00;;;23.00
29423;BMP180;16399;51.686;8.684;2023-06-14T11:09:53;100065.00;;;23.00
29423;BMP180;16399;51.686;8.684;2023-06-14T11:12:55;100066.00;;;23.00
29423;BMP180;16399;51.686;8.684;2023-06-14T11:15:58;100040.00;;;22.70
29423;BMP180;16399;51.686;8.684;2023-06-14T11:19:03;100058.00;;;22.70
29423;BMP180;16399;51.686;8.684;2023-06-14T11:22:06;100043.00;;;22.90
29423;BMP180;16399;51.686;8.684;2023-06-14T11:25:12;100043.00;;;22.90
29423;BMP180;16399;51.686;8.684;2023-06-14T11:28:14;100041.00;;;23.10
29423;BMP180;16399;51.686;8.684;2023-06-14T11:31:16;100044.00;;;23.30
29423;BMP180;16399;51.686;8.684;2023-06-14T11:34:20;100052.00;;;23.30
29423;BMP180;16399;51.686;8.684;2023-06-14T11:37:22;100042.00;;;23.40
29423;BMP180;16399;51.686;8.684;2023-06-14T11:40:26;100030.00;;;23.20
29423;BMP180;16399;51.686;8.684;2023-06-14T11:43:30;100037.00;;;23.20
29423;BMP180;16399;51.686;8.684;2023-06-14T11:46:34;100043.00;;;23.40
29423;BMP180;16399;51.686;8.684;2023-06-14T11:49:37;100036.00;;;23.60
29423;BMP180;16399;51.686;8.684;2023-06-14T11:52:39;100037.00;;;23.70
29423;BMP180;16399;51.686;8.684;2023-06-14T11:55:42;100049.00;;;23.50
29423;BMP180;16399;51.686;8.684;2023-06-14T11:58:45;100046.00;;;23.40
29423;BMP180;16399;51.686;8.684;2023-06-14T12:01:48;100050.00;;;23.30
29423;BMP180;16399;51.686;8.684;2023-06-14T12:04:50;100047.00;;;23.30
29423;BMP180;16399;51.686;8.684;2023-06-14T12:08:01;100033.00;;;23.40
29423;BMP180;16399;51.686;8.684;2023-06-14T12:11:03;100042.00;;;23.60
29423;BMP180;16399;51.686;8.684;2023-06-14T12:14:07;100019.00;;;23.80
29423;BMP180;16399;51.686;8.684;2023-06-14T12:17:10;100022.00;;;23.70
29423;BMP180;16399;51.686;8.684;2023-06-14T12:20:13;100017.00;;;23.40
29423;BMP180;16399;51.686;8.684;2023-06-14T12:23:17;100040.00;;;23.10
29423;BMP180;16399;51.686;8.684;2023-06-14T12:26:20;100035.00;;;22.70
29423;BMP180;16399;51.686;8.684;2023-06-14T12:29:22;100035.00;;;22.70
29423;BMP180;16399;51.686;8.684;2023-06-14T12:32:25;100029.00;;;22.60
29423;BMP180;16399;51.686;8.684;2023-06-14T12:35:27;100034.00;;;22.70
29423;BMP180;16399;51.686;8.684;2023-06-14T12:38:29;100029.00;;;22.80
29423;BMP180;16399;51.686;8.684;2023-06-14T12:41:32;100039.00;;;22.80
29423;BMP180;16399;51.686;8.684;2023-06-14T12:44:34;100042.00;;;23.00
29423;BMP180;16399;51.686;8.684;2023-06-14T12:47:38;100041.00;;;23.20
29423;BMP180;16399;51.686;8.684;2023-06-14T12:50:41;100031.00;;;23.40
29423;BMP180;16399;51.686;8.684;2023-06-14T12:53:43;100026.00;;;23.60
29423;BMP180;16399;51.686;8.684;2023-06-14T12:56:46;100030.00;;;23.80
29423;BMP180;16399;51.686;8.684;2023-06-14T12:59:48;100036.00;;;23.90
29423;BMP180;16399;51.686;8.684;2023-06-14T13:02:51;100019.00;;;23.80
29423;BMP180;16399;51.686;8.684;2023-06-14T13:05:53;100041.00;;;24.10
29423;BMP180;16399;51.686;8.684;2023-06-14T13:08:56;100036.00;;;23.90
29423;BMP180;16399;51.686;8.684;2023-06-14T13:12:00;100035.00;;;23.70
29423;BMP180;16399;51.686;8.684;2023-06-14T13:15:03;100029.00;;;23.30
29423;BMP180;16399;51.686;8.684;2023-06-14T13:18:05;100029.00;;;23.30
29423;BMP180;16399;51.686;8.684;2023-06-14T13:21:07;100032.00;;;23.30
29423;BMP180;16399;51.686;8.684;2023-06-14T13:24:10;100022.00;;;23.20
29423;BMP180;16399;51.686;8.684;2023-06-14T13:27:12;100026.00;;;23.30
29423;BMP180;16399;51.686;8.684;2023-06-14T13:30:15;100019.00;;;23.40
29423;BMP180;16399;51.686;8.684;2023-06-14T13:33:17;100030.00;;;23.60
29423;BMP180;16399;51.686;8.684;2023-06-14T13:36:20;100018.00;;;23.70
29423;BMP180;16399;51.686;8.684;2023-06-14T13:39:22;100027.00;;;24.00
29423;BMP180;16399;51.686;8.684;2023-06-14T13:42:24;100039.00;;;24.20
29423;BMP180;16399;51.686;8.684;2023-06-14T13:45:27;100017.00;;;24.10
29423;BMP180;16399;51.686;8.684;2023-06-14T13:48:29;100029.00;;;24.00
29423;BMP180;16399;51.686;8.684;2023-06-14T13:51:31;100025.00;;;24.20
29423;BMP180;16399;51.686;8.684;2023-06-14T13:54:34;100022.00;;;24.20
29423;BMP180;16399;51.686;8.684;2023-06-14T13:57:37;100025.00;;;24.00
29423;BMP180;16399;51.686;8.684;2023-06-14T14:00:40;100026.00;;;23.60
29423;BMP180;16399;51.686;8.684;2023-06-14T14:03:42;100030.00;;;23.40
29423;BMP180;16399;51.686;8.684;2023-06-14T14:06:46;100019.00;;;23.40
29423;BMP180;16399;51.686;8.684;2023-06-14T14:09:48;100022.00;;;23.40
29423;BMP180;16399;51.686;8.684;2023-06-14T14:12:51;100014.00;;;23.60
29423;BMP180;16399;51.686;8.684;2023-06-14T14:15:55;100010.00;;;23.90
29423;BMP180;16399;51.686;8.684;2023-06-14T14:18:57;100024.00;;;24.30
29423;BMP180;16399;51.686;8.684;2023-06-14T14:21:59;100023.00;;;24.30
29423;BMP180;16399;51.686;8.684;2023-06-14T14:25:02;100038.00;;;23.70
29423;BMP180;16399;51.686;8.684;2023-06-14T14:28:04;100036.00;;;23.70
29423;BMP180;16399;51.686;8.684;2023-06-14T14:31:06;100034.00;;;23.60
29423;BMP180;16399;51.686;8.684;2023-06-14T14:34:09;100030.00;;;23.50
29423;BMP180;16399;51.686;8.684;2023-06-14T14:37:11;100026.00;;;23.50
29423;BMP180;16399;51.686;8.684;2023-06-14T14:40:15;100031.00;;;23.50
29423;BMP180;16399;51.686;8.684;2023-06-14T14:43:17;100031.00;;;23.60
29423;BMP180;16399;51.686;8.684;2023-06-14T14:46:20;100018.00;;;23.70
29423;BMP180;16399;51.686;8.684;2023-06-14T14:49:22;100021.00;;;23.80
29423;BMP180;16399;51.686;8.684;2023-06-14T14:52:24;100024.00;;;23.80
29423;BMP180;16399;51.686;8.684;2023-06-14T14:55:27;100021.00;;;24.00
29423;BMP180;16399;51.686;8.684;2023-06-14T14:58:30;100015.00;;;24.10
29423;BMP180;16399;51.686;8.684;2023-06-14T15:01:32;100009.00;;;24.30
29423;BMP180;16399;51.686;8.684;2023-06-14T15:04:34;100022.00;;;24.50
29423;BMP180;16399;51.686;8.684;2023-06-14T15:07:37;100018.00;;;24.30
29423;BMP180;16399;51.686;8.684;2023-06-14T15:10:40;100022.00;;;23.90
29423;BMP180;16399;51.686;8.684;2023-06-14T15:13:44;100034.00;;;23.70
29423;BMP180;16399;51.686;8.684;2023-06-14T15:16:46;100019.00;;;23.50
29423;BMP180;16399;51.686;8.684;2023-06-14T15:19:48;100025.00;;;23.60
29423;BMP180;16399;51.686;8.684;2023-06-14T15:22:51;100024.00;;;23.70
29423;BMP180;16399;51.686;8.684;2023-06-14T15:25:53;100025.00;;;23.80
29423;BMP180;16399;51.686;8.684;2023-06-14T15:28:55;100026.00;;;24.00
29423;BMP180;16399;51.686;8.684;2023-06-14T15:31:58;100030.00;;;24.10
29423;BMP180;16399;51.686;8.684;2023-06-14T15:35:00;100018.00;;;24.00
29423;BMP180;16399;51.686;8.684;2023-06-14T15:38:02;100017.00;;;24.00
29423;BMP180;16399;51.686;8.684;2023-06-14T15:41:05;100026.00;;;24.00
29423;BMP180;16399;51.686;8.684;2023-06-14T15:44:08;100020.00;;;24.00
29423;BMP180;16399;51.686;8.684;2023-06-14T15:47:12;100028.00;;;24.10
29423;BMP180;16399;51.686;8.684;2023-06-14T15:50:15;100020.00;;;24.00
29423;BMP180;16399;51.686;8.684;2023-06-14T15:53:17;100019.00;;;24.00
29423;BMP180;16399;51.686;8.684;2023-06-14T15:56:19;100012.00;;;24.10
29423;BMP180;16399;51.686;8.684;2023-06-14T15:59:22;100008.00;;;24.20
29423;BMP180;16399;51.686;8.684;2023-06-14T16:02:24;100012.00;;;24.20
29423;BMP180;16399;51.686;8.684;2023-06-14T16:05:26;100012.00;;;24.20
29423;BMP180;16399;51.686;8.684;2023-06-14T16:08:29;100005.00;;;24.10
29423;BMP180;16399;51.686;8.684;2023-06-14T16:11:31;100012.00;;;23.90
29423;BMP180;16399;51.686;8.684;2023-06-14T16:14:33;100005.00;;;24.00
29423;BMP180;16399;51.686;8.684;2023-06-14T16:17:36;100000.00;;;24.00
29423;BMP180;16399;51.686;8.684;2023-06-14T16:20:38;99999.00;;;23.90
29423;BMP180;16399;51.686;8.684;2023-06-14T16:23:41;100005.00;;;24.10
29423;BMP180;16399;51.686;8.684;2023-06-14T16:26:43;100008.00;;;24.10
29423;BMP180;16399;51.686;8.684;2023-06-14T16:29:45;100007.00;;;24.10
29423;BMP180;16399;51.686;8.684;2023-06-14T16:32:48;100003.00;;;24.00
29423;BMP180;16399;51.686;8.684;2023-06-14T16:35:50;99997.00;;;24.10
29423;BMP180;16399;51.686;8.684;2023-06-14T16:38:52;99995.00;;;24.30
29423;BMP180;16399;51.686;8.684;2023-06-14T16:41:55;100010.00;;;24.40
29423;BMP180;16399;51.686;8.684;2023-06-14T16:44:57;100012.00;;;24.20
29423;BMP180;16399;51.686;8.684;2023-06-14T16:48:01;100014.00;;;24.10
29423;BMP180;16399;51.686;8.684;2023-06-14T16:51:03;100019.00;;;23.70
29423;BMP180;16399;51.686;8.684;2023-06-14T16:54:06;100023.00;;;23.70
29423;BMP180;16399;51.686;8.684;2023-06-14T16:57:08;100023.00;;;23.50
29423;BMP180;16399;51.686;8.684;2023-06-14T17:00:13;100017.00;;;23.50
29423;BMP180;16399;51.686;8.684;2023-06-14T17:03:15;100027.00;;;23.60
29423;BMP180;16399;51.686;8.684;2023-06-14T17:06:18;100030.00;;;23.60
29423;BMP180;16399;51.686;8.684;2023-06-14T17:09:21;100026.00;;;23.50
29423;BMP180;16399;51.686;8.684;2023-06-14T17:12:23;100028.00;;;23.40
29423;BMP180;16399;51.686;8.684;2023-06-14T17:15:26;100027.00;;;23.40
29423;BMP180;16399;51.686;8.684;2023-06-14T17:18:28;100033.00;;;23.20
29423;BMP180;16399;51.686;8.684;2023-06-14T17:21:31;100041.00;;;23.00
29423;BMP180;16399;51.686;8.684;2023-06-14T17:24:33;100047.00;;;22.80
29423;BMP180;16399;51.686;8.684;2023-06-14T17:27:36;100043.00;;;22.70
29423;BMP180;16399;51.686;8.684;2023-06-14T17:30:38;100041.00;;;22.60
29423;BMP180;16399;51.686;8.684;2023-06-14T17:33:40;100032.00;;;22.60
29423;BMP180;16399;51.686;8.684;2023-06-14T17:36:43;100052.00;;;22.60